Time;durP1;ratioP1;P1;durP2;ratioP2;P2;SDS_P1;SDS_P2;PMS_P1;PMS_P2;Temp;Humidity;BMP_temperature;BMP_pressure;BME280_temperature;BME280_humidity;BME280_pressure;Samples;Min_cycle;Max_cycle;Signal;HPM_P1;HPM_P2
2022/02/03 05:02:36;;;;;;;18.40;16.03;;;8.00;99.90;;;;;;5207200;23;20492;-65
2022/02/03 05:05:18;;;;;;;17.50;15.63;;;7.90;99.90;;;;;;5035535;28;20436;-65
2022/02/03 05:08:25;;;;;;;16.30;14.30;;;8.00;99.90;;;;;;5035347;28;20891;-65
2022/02/03 05:11:23;;;;;;;15.53;13.53;;;8.00;99.90;;;;;;5029125;28;20598;-65
2022/02/03 05:21:01;;;;;;;14.90;13.33;;;8.10;99.90;;;;;;4973904;28;20512;-66
2022/02/03 05:26:54;;;;;;;13.23;11.97;;;8.10;99.90;;;;;;5010390;28;20448;-66
2022/02/03 05:45:05;;;;;;;8.23;7.53;;;8.00;99.90;;;;;;5002469;28;20457;-65
2022/02/03 05:48:03;;;;;;;14.83;13.40;;;8.30;99.90;;;;;;5022739;28;20438;-65
2022/02/03 05:50:50;;;;;;;13.37;12.00;;;8.30;99.90;;;;;;5015738;28;20497;-66
2022/02/03 06:04:32;;;;;;;10.50;9.50;;;8.60;99.90;;;;;;5014688;28;20474;-67
2022/02/03 06:07:43;;;;;;;10.93;9.80;;;8.50;99.90;;;;;;5014581;28;20460;-65
2022/02/03 06:13:02;;;;;;;11.27;10.27;;;8.30;99.90;;;;;;5016587;28;20417;-65
2022/02/03 06:15:38;;;;;;;10.90;9.90;;;8.20;99.90;;;;;;5014242;28;20509;-66
2022/02/03 06:23:46;;;;;;;12.17;9.67;;;8.00;99.90;;;;;;5014449;28;20507;-66
2022/02/03 06:29:00;;;;;;;11.07;10.10;;;7.90;99.90;;;;;;5014489;28;20903;-66
2022/02/03 06:31:26;;;;;;;16.83;11.10;;;7.90;99.90;;;;;;5015703;28;20470;-66
2022/02/03 06:33:53;;;;;;;12.03;10.30;;;7.90;99.90;;;;;;5014643;28;20462;-65
2022/02/03 06:36:20;;;;;;;9.17;8.37;;;8.00;99.90;;;;;;5015009;28;20453;-65
2022/02/03 06:38:48;;;;;;;11.73;10.53;;;7.90;99.90;;;;;;5014577;28;20449;-65
2022/02/03 06:41:15;;;;;;;14.03;11.03;;;7.90;99.90;;;;;;5016704;28;20491;-65
2022/02/03 06:43:43;;;;;;;11.93;10.73;;;7.90;99.90;;;;;;5017848;28;20823;-66
2022/02/03 06:46:12;;;;;;;11.87;10.07;;;7.90;99.90;;;;;;5018175;28;20480;-65
2022/02/03 06:48:41;;;;;;;11.00;9.87;;;7.90;99.90;;;;;;5017870;28;20467;-65
2022/02/03 06:51:13;;;;;;;11.57;10.33;;;8.00;99.90;;;;;;5017824;28;20817;-65
2022/02/03 06:53:43;;;;;;;9.90;8.90;;;8.00;99.90;;;;;;5017626;28;20612;-67
2022/02/03 06:56:16;;;;;;;9.93;9.03;;;8.00;99.90;;;;;;5017732;28;20460;-66
2022/02/03 06:58:51;;;;;;;11.27;10.10;;;8.00;99.90;;;;;;5018045;28;20441;-66
2022/02/03 07:01:22;;;;;;;10.83;9.83;;;8.10;99.90;;;;;;5017804;28;20480;-66
2022/02/03 07:03:55;;;;;;;10.30;9.30;;;8.10;99.90;;;;;;5017505;28;20494;-66
2022/02/03 07:06:21;;;;;;;9.50;8.60;;;8.10;99.90;;;;;;5017553;28;20503;-66
2022/02/03 07:08:50;;;;;;;10.10;9.20;;;8.10;99.90;;;;;;5017376;28;20979;-65
2022/02/03 07:11:20;;;;;;;10.40;8.90;;;8.10;99.90;;;;;;5017086;28;20472;-65
2022/02/03 07:13:47;;;;;;;9.67;8.67;;;8.10;99.90;;;;;;5017037;28;20493;-66
2022/02/03 07:16:14;;;;;;;9.23;8.30;;;8.10;99.90;;;;;;5017914;28;20462;-66
2022/02/03 07:18:41;;;;;;;10.70;9.60;;;8.20;99.90;;;;;;5017168;28;21033;-66
2022/02/03 07:21:11;;;;;;;8.77;7.87;;;8.20;99.90;;;;;;5016984;28;20999;-66
2022/02/03 07:23:39;;;;;;;10.33;8.97;;;8.20;99.90;;;;;;5017801;28;20444;-65
2022/02/03 07:26:05;;;;;;;9.40;8.50;;;8.20;99.90;;;;;;5018107;28;20544;-65
2022/02/03 07:28:34;;;;;;;9.90;9.00;;;8.30;99.90;;;;;;5017456;28;20925;-65
2022/02/03 07:31:01;;;;;;;11.30;10.20;;;8.30;99.90;;;;;;5016914;28;20843;-65
2022/02/03 07:33:28;;;;;;;11.00;10.00;;;8.30;99.90;;;;;;5017424;28;20457;-66
2022/02/03 07:35:54;;;;;;;11.03;10.03;;;8.30;99.90;;;;;;5017873;28;20453;-67
2022/02/03 07:38:22;;;;;;;11.03;10.03;;;8.30;99.90;;;;;;5017391;28;20451;-67
2022/02/03 07:40:49;;;;;;;10.10;9.20;;;8.20;99.90;;;;;;5017232;28;20481;-68
2022/02/03 07:43:16;;;;;;;13.20;9.70;;;8.30;99.90;;;;;;5018961;28;20464;-66
2022/02/03 07:45:44;;;;;;;10.80;9.63;;;8.30;99.90;;;;;;5018591;28;20465;-66
2022/02/03 07:48:11;;;;;;;10.80;9.70;;;8.40;99.90;;;;;;5017795;28;20469;-67
2022/02/03 07:50:38;;;;;;;10.20;9.30;;;8.40;99.90;;;;;;5018121;28;20505;-67
2022/02/03 07:53:05;;;;;;;12.70;10.43;;;8.40;99.90;;;;;;5017008;28;20823;-67
2022/02/03 07:55:31;;;;;;;11.33;10.33;;;8.40;99.90;;;;;;5016700;28;20459;-67
2022/02/03 07:58:00;;;;;;;11.20;10.20;;;8.40;99.90;;;;;;5017721;28;20785;-67
2022/02/03 08:00:26;;;;;;;11.27;10.17;;;8.40;99.90;;;;;;5016453;28;20478;-67
2022/02/03 08:02:54;;;;;;;10.27;9.17;;;8.30;99.90;;;;;;5017269;28;20442;-67
2022/02/03 08:05:22;;;;;;;10.57;9.50;;;8.40;99.90;;;;;;5017078;28;20475;-66
2022/02/03 08:07:52;;;;;;;12.03;10.83;;;8.40;99.90;;;;;;5016703;28;20565;-67
2022/02/03 08:10:33;;;;;;;11.17;10.07;;;8.50;99.90;;;;;;5016986;28;20455;-68
2022/02/03 08:13:02;;;;;;;11.30;10.20;;;8.50;99.90;;;;;;5016427;28;20439;-66
2022/02/03 08:15:31;;;;;;;11.50;10.40;;;8.50;99.90;;;;;;5015981;28;20941;-66
2022/02/03 08:18:06;;;;;;;9.40;8.50;;;8.60;99.90;;;;;;5016101;28;20459;-66
2022/02/03 08:20:33;;;;;;;9.77;8.87;;;8.60;99.90;;;;;;5016549;28;20986;-66
2022/02/03 08:23:23;;;;;;;8.50;7.37;;;8.60;99.90;;;;;;5015932;28;20458;-66
2022/02/03 08:26:00;;;;;;;8.53;7.73;;;8.60;99.90;;;;;;5016069;28;20438;-66
2022/02/03 08:28:41;;;;;;;8.57;7.77;;;8.70;99.90;;;;;;5016016;28;20524;-66
2022/02/03 08:31:11;;;;;;;8.90;7.10;;;8.70;99.90;;;;;;5016014;28;20471;-66
2022/02/03 08:33:41;;;;;;;8.43;7.70;;;8.80;99.90;;;;;;5016132;28;20538;-67
2022/02/03 08:36:09;;;;;;;9.00;8.20;;;8.90;99.90;;;;;;5016672;28;20513;-67
2022/02/03 08:38:46;;;;;;;8.30;7.47;;;9.00;99.90;;;;;;5027331;28;20486;-67
2022/02/03 08:41:14;;;;;;;9.40;8.50;;;9.10;99.90;;;;;;5020419;28;20565;-67
2022/02/03 08:43:43;;;;;;;8.03;7.20;;;9.20;99.90;;;;;;5015691;28;20457;-67
2022/02/03 08:46:12;;;;;;;7.20;6.50;;;9.30;99.90;;;;;;5015990;28;20914;-68
2022/02/03 08:48:41;;;;;;;8.20;7.40;;;9.40;99.90;;;;;;5015878;28;20961;-67
2022/02/03 08:51:09;;;;;;;6.90;6.30;;;9.40;99.90;;;;;;5016106;28;20509;-65
2022/02/03 08:53:40;;;;;;;7.20;6.60;;;9.40;99.90;;;;;;5015926;28;20458;-65
2022/02/03 08:56:21;;;;;;;6.40;5.90;;;9.40;99.90;;;;;;5015990;28;20440;-65
2022/02/03 09:35:42;;;;;;;8.07;7.40;;;10.10;99.90;;;;;;5092206;28;20417;-66
2022/02/03 09:38:27;;;;;;;12.13;7.97;;;10.20;99.90;;;;;;5091701;28;20506;-65
2022/02/03 09:55:07;;;;;;;7.20;6.70;;;11.80;99.90;;;;;;5031377;28;20455;-65
2022/02/03 09:57:42;;;;;;;6.73;6.23;;;12.10;99.90;;;;;;5028803;28;20433;-65
2022/02/03 10:00:29;;;;;;;5.20;4.80;;;12.30;99.90;;;;;;5065935;28;20481;-66
2022/02/03 10:02:56;;;;;;;6.67;6.17;;;12.40;99.90;;;;;;5091708;28;20508;-65
2022/02/03 10:05:34;;;;;;;5.90;5.27;;;12.50;99.90;;;;;;5091187;28;20540;-65
2022/02/03 10:08:02;;;;;;;5.87;5.40;;;12.40;99.90;;;;;;5091416;28;20533;-66
2022/02/03 10:10:31;;;;;;;5.90;5.50;;;12.20;99.90;;;;;;5091101;28;20442;-66
2022/02/03 10:12:58;;;;;;;4.60;4.30;;;11.90;99.90;;;;;;5078087;28;20457;-65
2022/02/03 10:15:25;;;;;;;4.43;4.13;;;11.60;99.90;;;;;;5077440;28;20457;-66
2022/02/03 10:17:56;;;;;;;3.77;3.53;;;11.30;99.90;;;;;;5077013;28;20460;-67
2022/02/03 10:20:27;;;;;;;4.23;3.40;;;11.10;99.90;;;;;;5077492;28;20469;-65
2022/02/03 10:22:57;;;;;;;3.93;3.73;;;11.00;99.90;;;;;;5077107;28;20474;-66
2022/02/03 10:25:28;;;;;;;4.00;3.70;;;11.00;99.90;;;;;;5076542;28;20451;-65
2022/02/03 10:27:59;;;;;;;3.37;3.17;;;11.10;99.90;;;;;;5077211;28;20439;-66
2022/02/03 10:30:32;;;;;;;3.10;2.80;;;11.20;99.90;;;;;;5076767;28;20434;-66
2022/02/03 10:32:59;;;;;;;2.70;2.50;;;11.20;99.90;;;;;;5076769;28;20913;-66
2022/02/03 10:35:33;;;;;;;2.40;2.30;;;11.40;99.90;;;;;;5077133;28;20454;-66
2022/02/03 10:49:50;;;;;;;2.23;2.13;;;12.70;99.90;;;;;;5073125;28;20576;-66
2022/02/03 10:55:37;;;;;;;2.33;2.23;;;13.90;99.90;;;;;;5076767;28;20429;-65
2022/02/03 10:58:24;;;;;;;2.00;1.90;;;14.00;99.90;;;;;;5076426;28;20442;-65
2022/02/03 11:01:23;;;;;;;2.37;2.27;;;13.60;99.90;;;;;;5076074;28;20482;-66
2022/02/03 11:06:56;;;;;;;2.00;1.90;;;12.80;99.90;;;;;;5039584;28;20492;-66
2022/02/03 11:09:35;;;;;;;1.80;1.80;;;12.60;99.90;;;;;;5076082;28;20434;-66
2022/02/03 11:12:04;;;;;;;2.83;2.60;;;12.40;99.90;;;;;;5075498;28;20990;-66
2022/02/03 11:14:34;;;;;;;2.53;2.43;;;11.90;99.90;;;;;;5076230;28;20490;-66
2022/02/03 11:17:02;;;;;;;3.00;2.80;;;11.80;99.90;;;;;;5077086;28;20452;-66
2022/02/03 11:19:31;;;;;;;1.80;1.80;;;11.60;99.90;;;;;;5076967;28;20450;-67
2022/02/03 11:22:05;;;;;;;1.80;1.80;;;11.40;99.90;;;;;;5076692;28;20481;-66
2022/02/03 11:24:35;;;;;;;2.00;1.90;;;11.30;99.90;;;;;;5076166;28;20449;-66
2022/02/03 11:27:23;;;;;;;2.20;2.10;;;11.30;99.90;;;;;;5076990;28;20439;-66
2022/02/03 11:33:12;;;;;;;1.77;1.77;;;11.20;99.90;;;;;;5063883;28;20445;-66
2022/02/03 11:39:08;;;;;;;1.77;1.67;;;11.20;99.90;;;;;;5040652;28;20789;-67
2022/02/03 11:47:45;;;;;;;1.77;1.77;;;11.30;99.90;;;;;;5045922;28;20791;-65
2022/02/03 11:50:39;;;;;;;1.90;1.80;;;11.40;99.90;;;;;;5075905;28;20434;-66
2022/02/03 11:59:10;;;;;;;1.30;1.30;;;11.50;99.90;;;;;;5076595;28;20423;-66
2022/02/03 12:02:01;;;;;;;1.70;1.60;;;11.50;99.90;;;;;;5076143;28;20486;-66
2022/02/03 12:05:02;;;;;;;1.80;1.60;;;11.50;99.90;;;;;;5076487;28;20449;-66
2022/02/03 12:07:52;;;;;;;2.07;1.97;;;11.50;99.90;;;;;;5076386;28;20799;-67
2022/02/03 12:11:04;;;;;;;2.00;1.90;;;11.50;99.90;;;;;;5075837;28;20455;-66
2022/02/03 12:14:02;;;;;;;1.93;1.83;;;11.50;99.90;;;;;;5076469;28;20828;-66
2022/02/03 12:16:51;;;;;;;2.17;2.07;;;11.50;99.90;;;;;;5076625;28;20438;-67
2022/02/03 12:19:26;;;;;;;2.07;1.97;;;11.60;99.90;;;;;;5076617;28;20971;-66
2022/02/03 12:22:08;;;;;;;2.13;2.03;;;11.70;99.90;;;;;;5091037;28;20477;-67
2022/02/03 12:24:45;;;;;;;2.00;1.90;;;11.90;99.90;;;;;;5076046;28;20435;-68
2022/02/03 12:27:31;;;;;;;2.30;2.10;;;11.90;99.90;;;;;;5076242;28;20437;-66
2022/02/03 12:30:03;;;;;;;2.73;2.53;;;11.90;99.90;;;;;;5076052;28;20446;-67
2022/02/03 12:32:53;;;;;;;1.80;1.70;;;12.00;99.90;;;;;;5074261;28;21017;-65
2022/02/03 12:38:29;;;;;;;2.30;2.20;;;12.40;99.90;;;;;;5074559;28;20900;-65
2022/02/03 12:41:05;;;;;;;2.30;2.20;;;12.30;99.90;;;;;;5074214;28;20478;-65
2022/02/03 12:43:35;;;;;;;2.03;1.93;;;12.30;99.90;;;;;;5074394;28;20434;-66
2022/02/03 12:46:02;;;;;;;2.20;2.10;;;12.30;99.90;;;;;;5074203;28;20924;-65
2022/02/03 12:48:31;;;;;;;2.60;2.50;;;12.30;99.90;;;;;;5074420;28;20537;-65
2022/02/03 12:50:59;;;;;;;1.93;1.83;;;12.30;99.90;;;;;;5074210;28;20471;-65
2022/02/03 12:53:33;;;;;;;1.80;1.70;;;12.40;99.90;;;;;;5074459;28;20462;-65
2022/02/03 12:56:05;;;;;;;1.90;1.80;;;12.40;99.90;;;;;;5074511;28;20434;-65
2022/02/03 12:58:37;;;;;;;2.27;2.17;;;12.30;99.90;;;;;;5074233;28;20439;-65
2022/02/03 13:01:10;;;;;;;2.53;1.87;;;12.30;99.90;;;;;;5073968;28;20563;-67
2022/02/03 13:03:39;;;;;;;2.47;2.33;;;12.40;99.90;;;;;;5073853;28;20986;-66
2022/02/03 13:06:10;;;;;;;2.00;1.80;;;12.30;99.90;;;;;;5073448;28;20461;-65
2022/02/03 13:08:43;;;;;;;4.40;2.00;;;12.20;99.90;;;;;;5073929;28;20435;-65
2022/02/03 13:11:17;;;;;;;4.03;2.00;;;12.20;99.90;;;;;;5073711;28;20472;-66
2022/02/03 13:13:56;;;;;;;2.07;1.97;;;12.30;99.90;;;;;;5074051;28;20474;-66
2022/02/03 13:16:23;;;;;;;3.33;3.03;;;12.30;99.90;;;;;;5073961;28;20446;-65
2022/02/03 13:19:06;;;;;;;3.10;2.60;;;12.20;99.90;;;;;;5073606;28;20455;-66
2022/02/03 13:21:46;;;;;;;1.90;1.90;;;12.20;99.90;;;;;;5073379;28;20482;-66
2022/02/03 13:24:38;;;;;;;1.57;1.40;;;12.10;99.90;;;;;;5073917;28;20796;-66
2022/02/03 13:27:15;;;;;;;2.53;1.50;;;12.10;99.90;;;;;;5073797;28;20537;-65
2022/02/03 13:29:54;;;;;;;2.00;1.90;;;12.10;99.90;;;;;;5073610;28;21000;-66
2022/02/03 13:32:27;;;;;;;1.80;1.70;;;12.10;99.90;;;;;;5074082;28;20473;-66
2022/02/03 13:34:59;;;;;;;2.40;1.93;;;12.20;99.90;;;;;;5074294;28;20537;-66
2022/02/03 13:37:32;;;;;;;2.07;1.53;;;12.20;99.90;;;;;;5073911;28;20444;-66
2022/02/03 13:40:07;;;;;;;1.93;1.80;;;12.20;99.90;;;;;;5074295;28;20465;-66
2022/02/03 13:42:34;;;;;;;2.00;1.90;;;12.30;99.90;;;;;;5073691;28;20484;-65
2022/02/03 13:45:06;;;;;;;1.50;1.50;;;12.20;99.90;;;;;;5073870;28;20493;-66
2022/02/03 13:47:35;;;;;;;1.87;1.77;;;12.20;99.90;;;;;;5076166;28;20456;-66
2022/02/03 13:50:05;;;;;;;1.20;1.20;;;12.20;99.90;;;;;;5078319;28;20458;-67
2022/02/03 13:52:38;;;;;;;1.60;1.60;;;12.10;99.90;;;;;;5084260;28;20526;-69
2022/02/03 14:15:16;;;;;;;1.70;1.60;;;12.20;99.90;;;;;;5016207;28;20467;-65
2022/02/03 14:18:11;;;;;;;1.63;1.60;;;12.20;99.90;;;;;;5015557;28;20438;-66
2022/02/03 14:20:44;;;;;;;1.77;1.47;;;12.20;99.90;;;;;;5056879;28;20908;-65
2022/02/03 14:28:39;;;;;;;1.77;1.67;;;12.20;99.90;;;;;;5077543;28;20497;-65
2022/02/03 14:31:07;;;;;;;1.50;1.50;;;12.20;99.90;;;;;;5077517;28;20820;-65
2022/02/03 14:33:37;;;;;;;2.40;2.03;;;12.20;99.90;;;;;;5076829;28;20446;-66
2022/02/03 14:36:07;;;;;;;1.67;1.60;;;12.20;99.90;;;;;;5076645;28;20449;-65
2022/02/03 14:38:38;;;;;;;1.70;1.60;;;12.30;99.90;;;;;;5077147;28;20488;-65
2022/02/03 14:41:12;;;;;;;2.13;2.00;;;12.30;99.90;;;;;;5076714;28;20535;-65
2022/02/03 14:43:40;;;;;;;2.83;1.77;;;12.30;99.90;;;;;;5076362;28;20439;-66
2022/02/03 14:46:12;;;;;;;1.97;1.87;;;12.40;99.90;;;;;;5076691;28;20447;-66
2022/02/03 14:48:41;;;;;;;5.53;2.00;;;12.40;99.90;;;;;;5076951;28;20434;-66
2022/02/03 14:51:09;;;;;;;1.93;1.83;;;12.40;99.90;;;;;;5075758;28;20490;-66
2022/02/03 14:53:49;;;;;;;5.00;1.97;;;12.30;99.90;;;;;;5076260;28;20454;-66
2022/02/03 14:59:02;;;;;;;2.70;2.50;;;12.30;99.90;;;;;;5077025;28;20422;-65
2022/02/03 15:01:32;;;;;;;3.60;1.80;;;12.30;99.90;;;;;;5078556;28;20486;-66
2022/02/03 15:04:00;;;;;;;3.63;3.33;;;12.30;99.90;;;;;;5078189;28;20518;-66
2022/02/03 15:06:32;;;;;;;3.17;2.90;;;12.20;99.90;;;;;;5077873;28;20462;-66
2022/02/03 15:09:14;;;;;;;4.50;3.03;;;12.20;99.90;;;;;;5076828;28;20431;-66
2022/02/03 15:11:55;;;;;;;2.70;2.60;;;12.20;99.90;;;;;;5077380;28;20467;-66
2022/02/03 15:14:24;;;;;;;3.13;2.93;;;12.10;99.90;;;;;;5076876;28;20477;-66
2022/02/03 15:16:51;;;;;;;3.70;3.40;;;12.00;99.90;;;;;;5079014;28;20537;-65
2022/02/03 15:19:19;;;;;;;3.50;3.30;;;12.00;99.90;;;;;;5078214;28;20441;-65
2022/02/03 15:21:46;;;;;;;3.30;3.00;;;12.00;99.90;;;;;;5078010;28;20490;-65
2022/02/03 15:24:13;;;;;;;9.27;3.50;;;11.90;99.90;;;;;;5080339;28;20458;-65
2022/02/03 15:26:40;;;;;;;4.73;3.23;;;11.80;99.90;;;;;;5085711;28;20450;-65
2022/02/03 15:29:06;;;;;;;2.90;2.73;;;11.80;99.90;;;;;;5076899;28;20458;-65
2022/02/03 15:31:34;;;;;;;4.40;3.37;;;11.70;99.90;;;;;;5076762;28;20470;-65
2022/02/03 15:34:08;;;;;;;3.20;2.90;;;11.60;99.90;;;;;;5077266;28;20961;-65
2022/02/03 15:36:37;;;;;;;5.20;3.63;;;11.60;99.90;;;;;;5076916;28;20434;-66
2022/02/03 15:39:08;;;;;;;6.57;5.17;;;11.50;99.90;;;;;;5076742;28;20461;-65
2022/02/03 15:41:35;;;;;;;7.10;5.57;;;11.40;99.90;;;;;;5076432;28;20478;-65
2022/02/03 15:44:02;;;;;;;6.80;6.00;;;11.40;99.90;;;;;;5076562;28;20530;-66
2022/02/03 15:46:31;;;;;;;7.40;6.80;;;11.40;99.90;;;;;;5076313;28;20462;-66
2022/02/03 15:49:09;;;;;;;6.87;6.17;;;11.30;99.90;;;;;;5076964;28;20453;-67
2022/02/03 15:57:26;;;;;;;5.90;5.30;;;11.10;99.90;;;;;;5076712;28;20514;-66
2022/02/03 16:03:08;;;;;;;3.80;3.50;;;10.90;99.90;;;;;;5015310;28;20471;-66
2022/02/03 16:16:52;;;;;;;3.00;2.70;;;10.50;99.90;;;;;;5077589;28;20454;-66
2022/02/03 16:19:21;;;;;;;3.50;3.10;;;10.50;99.90;;;;;;5078142;28;20430;-66
2022/02/03 16:21:54;;;;;;;2.90;2.70;;;10.40;99.90;;;;;;5077292;28;20481;-65
2022/02/03 16:24:37;;;;;;;3.47;3.00;;;10.40;99.90;;;;;;5077609;28;20496;-66
2022/02/03 16:54:30;;;;;;;4.13;3.83;;;9.70;99.90;;;;;;5073816;28;20463;-66
2022/02/03 16:57:01;;;;;;;4.17;3.77;;;9.60;99.90;;;;;;5076017;28;20488;-65
2022/02/03 16:59:29;;;;;;;3.83;3.63;;;9.60;99.90;;;;;;5076233;28;20446;-67
2022/02/03 17:01:56;;;;;;;7.03;4.10;;;9.60;99.90;;;;;;5076445;28;20520;-66
2022/02/03 17:04:23;;;;;;;4.17;3.87;;;9.60;99.90;;;;;;5076376;28;20832;-69
2022/02/03 17:06:50;;;;;;;4.30;4.00;;;9.50;99.90;;;;;;5076485;28;20456;-68
2022/02/03 17:09:18;;;;;;;3.80;3.50;;;9.50;99.90;;;;;;5076557;28;20460;-65
2022/02/03 17:11:46;;;;;;;4.27;3.83;;;9.50;99.90;;;;;;5076908;28;20513;-66
2022/02/03 17:14:13;;;;;;;4.90;4.37;;;9.50;99.90;;;;;;5077283;28;20438;-66
2022/02/03 17:16:39;;;;;;;4.40;4.10;;;9.50;99.90;;;;;;5082163;28;20453;-67
2022/02/03 17:19:06;;;;;;;4.70;4.40;;;9.50;99.90;;;;;;5085984;28;20460;-67
2022/02/03 17:21:33;;;;;;;5.63;4.23;;;9.50;99.90;;;;;;5080715;28;20485;-66
2022/02/03 17:24:01;;;;;;;5.30;4.77;;;9.40;99.90;;;;;;5081804;28;20448;-66
2022/02/03 17:26:34;;;;;;;5.37;4.87;;;9.40;99.90;;;;;;5085364;28;20885;-66
2022/02/03 17:29:10;;;;;;;5.53;5.13;;;9.40;99.90;;;;;;5093062;28;20465;-65
2022/02/03 17:31:53;;;;;;;9.00;5.20;;;9.40;99.90;;;;;;5082897;28;20521;-66
2022/02/03 17:55:02;;;;;;;6.30;5.80;;;9.10;99.90;;;;;;5094676;28;20532;-67
2022/02/03 18:11:07;;;;;;;7.40;6.80;;;9.00;99.90;;;;;;5100344;28;20531;-67
2022/02/03 18:30:18;;;;;;;7.40;6.70;;;8.80;99.90;;;;;;5084850;28;20447;-65
2022/02/03 18:32:56;;;;;;;7.80;7.10;;;8.80;99.90;;;;;;5093762;28;20461;-65
2022/02/03 18:35:34;;;;;;;7.07;6.47;;;8.80;99.90;;;;;;5094130;28;20530;-65
2022/02/03 18:51:42;;;;;;;6.43;5.93;;;8.90;99.90;;;;;;5093540;28;20465;-66
2022/02/03 18:54:19;;;;;;;6.80;6.20;;;8.90;99.90;;;;;;5101084;28;20504;-64
2022/02/03 18:56:53;;;;;;;6.90;6.30;;;8.90;99.90;;;;;;5107776;28;20466;-65
2022/02/03 18:59:44;;;;;;;6.70;6.10;;;8.90;99.90;;;;;;5095668;28;20494;-65
2022/02/03 19:11:26;;;;;;;6.90;6.40;;;8.80;99.90;;;;;;5079288;28;20499;-67
2022/02/03 19:22:47;;;;;;;9.33;7.20;;;8.70;99.90;;;;;;5079544;28;20525;-64
2022/02/03 19:27:49;;;;;;;7.57;6.83;;;8.70;99.90;;;;;;5065066;28;20492;-64
2022/02/03 20:06:29;;;;;;;7.17;6.57;;;8.30;99.90;;;;;;5074842;28;20791;-64
2022/02/03 20:09:02;;;;;;;7.80;7.17;;;8.30;99.90;;;;;;5079940;28;20521;-65
2022/02/03 20:11:30;;;;;;;7.80;6.90;;;8.30;99.90;;;;;;5078555;28;20482;-64
2022/02/03 20:13:57;;;;;;;6.93;6.40;;;8.30;99.90;;;;;;5080052;28;20457;-64
2022/02/03 20:16:25;;;;;;;8.20;7.23;;;8.30;99.90;;;;;;5080041;28;20459;-64
2022/02/03 20:18:52;;;;;;;7.80;7.13;;;8.30;99.90;;;;;;5080556;28;20444;-65
2022/02/03 20:21:19;;;;;;;8.10;6.60;;;8.30;99.90;;;;;;5079684;28;20484;-65
2022/02/03 20:23:47;;;;;;;8.07;7.10;;;8.40;99.90;;;;;;5080370;28;20450;-65
2022/02/03 20:26:17;;;;;;;6.60;6.10;;;8.40;99.90;;;;;;5079003;28;20452;-64
2022/02/03 20:28:46;;;;;;;6.80;6.20;;;8.50;99.90;;;;;;5076088;28;20441;-64
2022/02/03 20:31:13;;;;;;;6.83;6.27;;;8.50;99.90;;;;;;5075913;28;20495;-65
2022/02/03 20:33:41;;;;;;;7.03;6.43;;;8.40;99.90;;;;;;5075938;28;20460;-64
2022/02/03 20:36:09;;;;;;;6.57;6.07;;;8.50;99.90;;;;;;5075843;28;20813;-64
2022/02/03 20:38:36;;;;;;;6.73;6.13;;;8.50;99.90;;;;;;5075016;28;20809;-64
2022/02/03 20:41:04;;;;;;;6.30;5.87;;;8.60;99.90;;;;;;5075413;28;20474;-63
2022/02/03 20:43:31;;;;;;;7.03;6.40;;;8.60;99.90;;;;;;5075214;28;20945;-63
2022/02/03 20:45:58;;;;;;;8.20;7.50;;;8.60;99.90;;;;;;5075558;28;20793;-64
2022/02/03 20:48:25;;;;;;;7.93;7.23;;;8.60;99.90;;;;;;5075769;28;20464;-64
2022/02/03 20:50:53;;;;;;;7.60;6.90;;;8.60;99.90;;;;;;5076138;28;20468;-65
2022/02/03 20:53:20;;;;;;;8.33;7.63;;;8.60;99.90;;;;;;5075475;28;20922;-64
2022/02/03 20:55:48;;;;;;;7.47;6.40;;;8.70;99.90;;;;;;5075605;28;20463;-64
2022/02/03 20:58:19;;;;;;;8.70;7.90;;;8.70;99.90;;;;;;5075489;28;20448;-65
2022/02/03 21:00:51;;;;;;;8.97;8.17;;;8.70;99.90;;;;;;5075281;28;20473;-66
2022/02/03 21:03:23;;;;;;;9.10;8.30;;;8.80;99.90;;;;;;5075334;28;20483;-64
2022/02/03 21:05:49;;;;;;;7.60;6.90;;;8.80;99.90;;;;;;5075975;28;20495;-65
2022/02/03 21:08:22;;;;;;;8.40;7.70;;;8.80;99.90;;;;;;5083441;28;20481;-65
2022/02/03 21:10:49;;;;;;;9.63;8.73;;;8.90;99.90;;;;;;5076224;28;20521;-65
2022/02/03 21:13:16;;;;;;;8.40;7.70;;;8.90;99.90;;;;;;5082959;28;20506;-65
2022/02/03 21:15:43;;;;;;;9.73;8.00;;;8.90;99.90;;;;;;5080872;28;20462;-66
2022/02/03 21:18:12;;;;;;;9.03;8.23;;;8.90;99.90;;;;;;5074674;28;20855;-66
2022/02/03 21:20:41;;;;;;;9.37;8.57;;;9.00;99.90;;;;;;5074579;28;20936;-64
2022/02/03 21:23:09;;;;;;;8.63;7.93;;;9.00;99.90;;;;;;5075173;28;20840;-64
2022/02/03 21:25:41;;;;;;;8.67;7.93;;;9.00;99.90;;;;;;5074918;28;20459;-64
2022/02/03 21:28:13;;;;;;;9.30;8.50;;;9.00;99.90;;;;;;5074787;28;20477;-64
2022/02/03 21:30:41;;;;;;;9.10;8.40;;;9.00;99.90;;;;;;5074936;28;20936;-64
2022/02/03 21:33:11;;;;;;;9.80;8.90;;;9.00;99.90;;;;;;5074438;28;20437;-64
2022/02/03 21:35:40;;;;;;;8.50;7.80;;;9.00;99.90;;;;;;5077945;28;20505;-64
2022/02/03 21:38:08;;;;;;;9.10;8.30;;;9.00;99.90;;;;;;5090342;28;20441;-65
2022/02/03 21:40:34;;;;;;;8.90;8.00;;;9.00;99.90;;;;;;5075245;28;20770;-64
2022/02/03 21:43:03;;;;;;;8.77;8.07;;;9.00;99.90;;;;;;5075564;28;20866;-64
2022/02/03 21:45:31;;;;;;;8.90;8.10;;;9.00;99.90;;;;;;5074497;28;20457;-64
2022/02/03 21:47:58;;;;;;;9.70;8.90;;;9.00;99.90;;;;;;5074171;28;20538;-65
2022/02/03 21:50:30;;;;;;;8.83;7.93;;;9.00;99.90;;;;;;5074335;28;20455;-65
2022/02/03 21:52:57;;;;;;;8.47;7.77;;;9.00;99.90;;;;;;5074250;28;20895;-64
2022/02/03 21:55:25;;;;;;;8.30;7.63;;;9.10;99.90;;;;;;5074588;28;20450;-64
2022/02/03 21:57:54;;;;;;;8.00;7.30;;;9.10;99.90;;;;;;5074191;28;20510;-64
2022/02/03 22:00:23;;;;;;;9.40;8.50;;;9.10;99.90;;;;;;5074280;28;20503;-65
2022/02/03 22:02:51;;;;;;;9.00;8.20;;;9.00;99.90;;;;;;5074157;28;20453;-64
2022/02/03 22:05:18;;;;;;;8.97;8.17;;;9.10;99.90;;;;;;5073970;28;20465;-65
2022/02/03 22:07:47;;;;;;;9.67;8.73;;;9.00;99.90;;;;;;5073953;28;20481;-66
2022/02/03 22:10:17;;;;;;;9.73;8.77;;;9.00;99.90;;;;;;5074618;28;20456;-63
2022/02/03 22:12:44;;;;;;;10.20;9.20;;;9.00;99.90;;;;;;5074495;28;20480;-64
2022/02/03 22:15:11;;;;;;;10.37;9.50;;;9.00;99.90;;;;;;5074662;28;20457;-64
2022/02/03 22:17:39;;;;;;;10.30;9.40;;;9.00;99.90;;;;;;5074920;28;20453;-64
2022/02/03 22:20:17;;;;;;;10.47;9.57;;;9.00;99.90;;;;;;5074280;28;20548;-64
2022/02/03 22:22:52;;;;;;;10.90;9.90;;;9.00;99.90;;;;;;5074424;28;20834;-64
2022/02/03 22:25:36;;;;;;;11.20;9.97;;;9.00;99.90;;;;;;5074211;28;20448;-64
2022/02/03 22:28:23;;;;;;;11.40;10.33;;;8.90;99.90;;;;;;5074080;28;20982;-65
2022/02/03 22:39:15;;;;;;;12.40;11.30;;;8.90;99.90;;;;;;5077747;28;20416;-65
2022/02/03 22:44:43;;;;;;;11.50;10.40;;;8.80;99.90;;;;;;5063703;28;20436;-64
2022/02/03 22:47:23;;;;;;;11.67;10.60;;;8.80;99.90;;;;;;5090544;28;20479;-64
2022/02/03 22:49:51;;;;;;;12.57;11.07;;;8.80;99.90;;;;;;5083663;28;20441;-64
2022/02/03 22:52:18;;;;;;;11.67;10.67;;;8.80;99.90;;;;;;5080460;28;20477;-63
2022/02/03 22:54:45;;;;;;;12.13;11.03;;;8.80;99.90;;;;;;5078297;28;20508;-65
2022/02/03 22:57:11;;;;;;;12.20;11.10;;;8.70;99.90;;;;;;5077523;28;20454;-64
2022/02/03 23:00:09;;;;;;;10.87;9.77;;;8.80;99.90;;;;;;5081816;28;20464;-64
